Terminal Aerodrome Forecast
Issued by NWS

Home | Current Version | Previous Version | Text Only | Print | Product List | Glossary On
Versions: 1 2 3 4 5 6 7 8 9 10 11 12 13 14 15 16 17
000
FTUS46 KSGX 011700
TAFCRQ
TAF
KCRQ 011721Z 0118/0218 VRB03KT P6SM SKC
     FM011900 23007KT P6SM SKC
     FM020200 VRB04KT P6SM SCT009
     FM020600 VRB03KT 6SM BR BKN007
     FM021200 VRB03KT P6SM SCT007=

USA.gov is the U.S. government's official web portal to all federal, state and local government web resources and services.